createdAt,value
2022-09-17T00:02:59.410Z,0.63
2022-09-17T00:08:01.168Z,1.00
2022-09-17T00:13:02.696Z,1.08
2022-09-17T00:18:04.232Z,0.70
2022-09-17T00:23:06.826Z,0.85
2022-09-17T00:28:09.180Z,0.85
2022-09-17T00:33:15.984Z,0.80
2022-09-17T00:38:17.483Z,0.75
2022-09-17T00:43:49.671Z,0.80
2022-09-17T00:48:54.087Z,0.95
2022-09-17T00:53:56.483Z,0.98
2022-09-17T00:58:58.489Z,0.50
2022-09-17T01:04:00.325Z,0.93
2022-09-17T01:09:07.110Z,0.70
2022-09-17T01:14:14.725Z,0.88
2022-09-17T01:19:37.488Z,0.90
2022-09-17T01:24:49.467Z,0.70
2022-09-17T01:30:12.441Z,0.68
2022-09-17T01:35:38.288Z,0.70
2022-09-17T01:40:54.050Z,1.02
2022-09-17T01:46:21.027Z,0.75
2022-09-17T01:51:25.286Z,0.80
2022-09-17T01:56:33.938Z,0.60
2022-09-17T02:01:38.455Z,0.77
2022-09-17T02:06:46.379Z,0.70
2022-09-17T02:11:55.321Z,0.80
2022-09-17T02:17:11.054Z,0.68
2022-09-17T02:22:28.066Z,0.80
2022-09-17T02:32:39.500Z,0.68
2022-09-17T02:37:42.381Z,0.55
2022-09-17T02:43:03.939Z,0.70
2022-09-17T02:48:12.725Z,0.70
2022-09-17T02:53:38.245Z,0.57
2022-09-17T02:59:11.728Z,0.80
2022-09-17T03:04:17.342Z,0.65
2022-09-17T03:09:19.023Z,0.40
2022-09-17T03:14:20.886Z,0.65
2022-09-17T03:19:22.487Z,0.88
2022-09-17T03:24:24.058Z,1.05
2022-09-17T03:29:25.807Z,1.15
2022-09-17T03:34:27.341Z,0.90
2022-09-17T03:39:29.797Z,0.65
2022-09-17T03:44:31.427Z,0.70
2022-09-17T03:49:33.202Z,0.88
2022-09-17T03:54:34.760Z,0.70
2022-09-17T03:59:36.326Z,1.20
2022-09-17T04:04:37.936Z,1.30
2022-09-17T04:09:39.463Z,0.80
2022-09-17T04:14:41.005Z,0.82
2022-09-17T04:19:42.554Z,0.82
2022-09-17T04:24:44.137Z,0.75
2022-09-17T04:29:45.725Z,0.70
2022-09-17T04:34:47.327Z,0.93
2022-09-17T04:39:48.944Z,1.00
2022-09-17T04:44:50.560Z,1.27
2022-09-17T04:49:52.228Z,0.80
2022-09-17T04:54:53.761Z,1.00
2022-09-17T04:59:55.306Z,0.90
2022-09-17T05:04:56.929Z,0.88
2022-09-17T05:09:58.498Z,0.98
2022-09-17T05:15:00.132Z,1.10
2022-09-17T05:20:02.001Z,1.40
2022-09-17T05:25:03.857Z,1.17
2022-09-17T05:30:06.417Z,1.13
2022-09-17T05:35:09.202Z,1.00
2022-09-17T05:40:10.931Z,0.73
2022-09-17T05:45:12.817Z,0.82
2022-09-17T05:50:14.572Z,1.02
2022-09-17T05:55:16.571Z,1.20
2022-09-17T06:00:18.946Z,1.00
2022-09-17T06:05:20.611Z,4.18
2022-09-17T06:10:22.342Z,1.00
2022-09-17T06:15:24.197Z,0.90
2022-09-17T06:20:25.861Z,0.80
2022-09-17T06:25:27.476Z,1.30
2022-09-17T06:30:29.533Z,0.60
2022-09-17T06:35:31.364Z,0.45
2022-09-17T06:40:33.220Z,1.00
2022-09-17T06:45:34.843Z,0.85
2022-09-17T06:50:40.589Z,1.13
2022-09-17T06:55:44.146Z,0.32
2022-09-17T07:00:45.755Z,0.40
2022-09-17T07:05:47.706Z,0.35
2022-09-17T07:10:49.430Z,1.02
2022-09-17T07:15:59.524Z,0.32
2022-09-17T07:21:06.072Z,1.10
2022-09-17T07:26:12.828Z,4.10
2022-09-17T07:31:16.532Z,2.15
2022-09-17T07:36:18.614Z,3.03
2022-09-17T07:41:20.213Z,3.53
2022-09-17T07:46:21.845Z,4.50
2022-09-17T07:51:25.734Z,3.67
2022-09-17T07:56:27.904Z,3.85
2022-09-17T08:01:29.764Z,2.92
2022-09-17T08:06:31.402Z,3.47
2022-09-17T08:16:54.870Z,2.88
2022-09-17T08:21:56.742Z,3.10
2022-09-17T08:26:58.321Z,2.60
2022-09-17T08:31:59.985Z,2.20
2022-09-17T08:37:01.601Z,2.78
2022-09-17T08:42:31.341Z,3.47
2022-09-17T08:47:41.190Z,2.95
2022-09-17T08:52:59.682Z,3.58
2022-09-17T08:58:22.779Z,3.58
2022-09-17T09:03:49.318Z,3.78
2022-09-17T09:08:59.038Z,2.90
2022-09-17T09:14:09.670Z,2.65
2022-09-17T09:19:26.877Z,1.98
2022-09-17T09:24:42.235Z,2.25
2022-09-17T09:30:04.326Z,1.67
2022-09-17T09:35:18.935Z,1.42
2022-09-17T09:40:48.655Z,2.03
2022-09-17T09:46:11.444Z,1.30
2022-09-17T09:51:20.544Z,2.75
2022-09-17T09:56:52.843Z,1.05
2022-09-17T10:01:54.603Z,1.02
2022-09-17T10:07:08.641Z,1.10
2022-09-17T10:12:10.905Z,0.93
2022-09-17T10:17:26.620Z,0.80
2022-09-17T10:22:32.630Z,0.85
2022-09-17T10:27:36.811Z,1.00
2022-09-17T10:32:38.404Z,0.80
2022-09-17T10:37:48.814Z,1.02
2022-09-17T10:43:11.196Z,0.93
2022-09-17T10:48:18.161Z,1.00
2022-09-17T10:53:23.297Z,1.35
2022-09-17T10:58:39.194Z,1.20
2022-09-17T11:04:21.094Z,1.20
2022-09-17T11:09:30.451Z,0.90
2022-09-17T11:15:00.871Z,1.20
2022-09-17T11:20:27.148Z,0.98
2022-09-17T11:25:39.701Z,1.27
2022-09-17T11:30:55.441Z,1.58
2022-09-17T11:36:04.354Z,1.40
2022-09-17T11:41:31.090Z,1.23
2022-09-17T11:46:40.536Z,1.38
2022-09-17T11:51:58.475Z,1.02
2022-09-17T11:57:16.838Z,0.82
2022-09-17T12:02:27.310Z,1.00
2022-09-17T12:07:33.834Z,1.45
2022-09-17T12:12:49.984Z,1.98
2022-09-17T12:18:31.313Z,1.83
2022-09-17T12:23:40.228Z,1.23
2022-09-17T12:28:47.039Z,1.30
2022-09-17T12:39:12.927Z,1.73
2022-09-17T12:44:25.922Z,1.40
2022-09-17T12:49:43.364Z,1.40
2022-09-17T12:54:54.727Z,1.20
2022-09-17T13:00:11.739Z,1.05
2022-09-17T13:05:41.414Z,1.55
2022-09-17T13:11:20.179Z,1.25
2022-09-17T13:16:41.165Z,1.45
2022-09-17T13:22:00.355Z,1.15
2022-09-17T13:27:03.909Z,0.70
2022-09-17T13:32:05.418Z,0.70
2022-09-17T13:37:20.391Z,0.90
2022-09-17T13:42:29.241Z,0.60
2022-09-17T13:47:56.975Z,0.60
2022-09-17T13:53:06.608Z,0.90
2022-09-17T13:58:36.409Z,0.90
2022-09-17T14:03:42.028Z,1.10
2022-09-17T14:08:43.701Z,1.25
2022-09-17T14:13:45.929Z,0.80
2022-09-17T14:18:58.888Z,0.88
2022-09-17T14:24:03.688Z,1.08
2022-09-17T14:29:43.639Z,1.30
2022-09-17T14:34:45.412Z,1.02
2022-09-17T14:39:49.083Z,1.33
2022-09-17T14:45:02.368Z,1.45
2022-09-17T14:50:26.381Z,1.30
2022-09-17T14:55:31.873Z,1.30
2022-09-17T15:00:38.091Z,1.33
2022-09-17T15:05:41.073Z,1.47
2022-09-17T15:11:02.674Z,1.20
2022-09-17T15:16:12.833Z,1.35
2022-09-17T15:21:43.458Z,1.20
2022-09-17T15:26:51.491Z,0.80
2022-09-17T15:31:53.454Z,1.20
2022-09-17T15:37:24.934Z,0.98
2022-09-17T15:42:29.503Z,1.35
2022-09-17T15:47:48.640Z,1.48
2022-09-17T15:52:51.797Z,1.52
2022-09-17T15:57:53.635Z,1.40
2022-09-17T16:02:55.638Z,1.27
2022-09-17T16:08:18.146Z,1.00
2022-09-17T16:13:19.795Z,1.23
2022-09-17T16:18:21.441Z,1.33
2022-09-17T16:23:23.178Z,1.02
2022-09-17T16:28:24.841Z,1.00
2022-09-17T16:33:28.273Z,1.00
2022-09-17T16:38:29.837Z,1.13
2022-09-17T16:43:33.787Z,1.10
2022-09-17T16:48:35.392Z,1.33
2022-09-17T16:53:37.337Z,1.58
2022-09-17T16:58:40.161Z,1.58
2022-09-17T17:03:42.232Z,1.77
2022-09-17T17:08:43.925Z,1.80
2022-09-17T17:13:45.647Z,1.40
2022-09-17T17:18:47.315Z,1.30
2022-09-17T17:23:49.083Z,1.30
2022-09-17T17:28:50.834Z,1.20
2022-09-17T17:33:52.697Z,1.80
2022-09-17T17:39:00.898Z,1.10
2022-09-17T17:44:02.850Z,1.15
2022-09-17T17:49:04.830Z,0.80
2022-09-17T17:54:06.602Z,0.75
2022-09-17T17:59:08.401Z,1.52
2022-09-17T18:04:10.122Z,0.70
2022-09-17T18:09:11.790Z,0.60
2022-09-17T18:14:13.930Z,0.40
2022-09-17T18:19:15.598Z,0.60
2022-09-17T18:24:17.216Z,0.60
2022-09-17T18:29:18.902Z,0.60
2022-09-17T18:34:20.563Z,0.60
2022-09-17T18:44:44.131Z,0.80
2022-09-17T18:49:45.767Z,0.95
2022-09-17T18:54:47.362Z,0.60
2022-09-17T18:59:48.951Z,0.60
2022-09-17T19:04:50.542Z,0.50
2022-09-17T19:09:52.162Z,0.50
2022-09-17T19:14:54.424Z,0.80
2022-09-17T19:19:56.011Z,0.52
2022-09-17T19:24:57.675Z,0.80
2022-09-17T19:30:00.468Z,0.47
2022-09-17T19:35:02.282Z,0.68
2022-09-17T19:40:05.787Z,0.47
2022-09-17T19:45:08.071Z,0.93
2022-09-17T19:50:09.795Z,0.90
2022-09-17T19:55:13.077Z,0.60
2022-09-17T20:00:15.640Z,0.50
2022-09-17T20:05:17.342Z,0.60
2022-09-17T20:10:19.496Z,1.05
2022-09-17T20:15:21.098Z,0.70
2022-09-17T20:20:28.297Z,0.80
2022-09-17T20:25:29.948Z,0.70
2022-09-17T20:30:31.542Z,0.60
2022-09-17T20:35:35.756Z,0.43
2022-09-17T20:40:37.460Z,0.50
2022-09-17T20:45:39.095Z,0.55
2022-09-17T20:50:40.762Z,0.60
2022-09-17T20:55:42.341Z,0.30
2022-09-17T21:00:44.023Z,0.60
2022-09-17T21:05:45.693Z,0.40
2022-09-17T21:10:47.254Z,0.57
2022-09-17T21:16:00.066Z,0.60
2022-09-17T21:21:07.622Z,0.40
2022-09-17T21:26:14.804Z,0.30
2022-09-17T21:36:36.301Z,0.30
2022-09-17T21:41:42.368Z,0.32
2022-09-17T21:46:44.654Z,0.47
2022-09-17T21:51:46.514Z,0.38
2022-09-17T21:56:48.118Z,0.25
2022-09-17T22:01:50.639Z,0.45
2022-09-17T22:06:53.368Z,0.73
2022-09-17T22:11:55.124Z,0.60
2022-09-17T22:16:57.222Z,0.40
2022-09-17T22:21:59.005Z,0.38
2022-09-17T22:27:00.626Z,0.40
2022-09-17T22:32:02.585Z,0.32
2022-09-17T22:37:06.103Z,0.85
2022-09-17T22:42:07.697Z,0.30
2022-09-17T22:47:09.340Z,0.40
2022-09-17T22:52:10.973Z,0.30
2022-09-17T22:57:12.530Z,0.63
2022-09-17T23:02:14.127Z,0.50
2022-09-17T23:07:15.680Z,0.47
2022-09-17T23:12:17.308Z,0.40
2022-09-17T23:17:18.959Z,0.35
2022-09-17T23:22:23.137Z,0.90
2022-09-17T23:27:24.695Z,0.40
2022-09-17T23:32:26.326Z,0.40
2022-09-17T23:37:28.149Z,0.40
2022-09-17T23:42:29.791Z,0.50
2022-09-17T23:47:31.704Z,0.73
2022-09-17T23:52:33.297Z,0.57
2022-09-17T23:57:34.843Z,0.50
